createdAt,value
2018-09-21T00:00:28.741Z,1002.01
2018-09-21T00:01:28.760Z,1002.02
2018-09-21T00:02:28.732Z,1001.99
2018-09-21T00:03:28.290Z,1001.96
2018-09-21T00:04:28.707Z,1001.92
2018-09-21T00:05:28.747Z,1001.91
2018-09-21T00:06:28.752Z,1001.88
2018-09-21T00:07:28.732Z,1001.89
2018-09-21T00:08:28.745Z,1001.83
2018-09-21T00:09:28.768Z,1001.85
2018-09-21T00:10:28.837Z,1001.84
2018-09-21T00:11:28.762Z,1001.83
2018-09-21T00:12:28.344Z,1001.81
2018-09-21T00:13:28.714Z,1001.77
2018-09-21T00:14:28.715Z,1001.81
2018-09-21T00:15:28.740Z,1001.74
2018-09-21T00:16:28.230Z,1001.76
2018-09-21T00:17:28.712Z,1001.74
2018-09-21T00:18:28.656Z,1001.68
2018-09-21T00:19:30.518Z,1001.68
2018-09-21T00:20:28.737Z,1001.64
2018-09-21T00:21:28.759Z,1001.61
2018-09-21T00:22:30.519Z,1001.58
2018-09-21T00:23:30.491Z,1001.56
2018-09-21T00:24:28.747Z,1001.56
2018-09-21T00:25:28.945Z,1001.55
2018-09-21T00:26:28.749Z,1001.55
2018-09-21T00:27:28.732Z,1001.55
2018-09-21T00:28:28.777Z,1001.53
2018-09-21T00:29:28.794Z,1001.57
2018-09-21T00:30:28.759Z,1001.52
2018-09-21T00:31:28.743Z,1001.50
2018-09-21T00:32:28.761Z,1001.46
2018-09-21T00:33:28.734Z,1001.45
2018-09-21T00:34:28.772Z,1001.47
2018-09-21T00:35:28.748Z,1001.45
2018-09-21T00:36:29.452Z,1001.40
2018-09-21T00:37:28.822Z,1001.41
2018-09-21T00:38:28.954Z,1001.39
2018-09-21T00:39:28.723Z,1001.37
2018-09-21T00:40:28.733Z,1001.37
2018-09-21T00:41:28.769Z,1001.36
2018-09-21T00:42:30.515Z,1001.36
2018-09-21T00:43:28.751Z,1001.34
2018-09-21T00:44:28.744Z,1001.33
2018-09-21T00:45:28.749Z,1001.35
2018-09-21T00:46:28.196Z,1001.31
2018-09-21T00:47:28.747Z,1001.32
2018-09-21T00:48:28.779Z,1001.28
2018-09-21T00:49:30.526Z,1001.29
2018-09-21T00:50:28.753Z,1001.28
2018-09-21T00:51:28.769Z,1001.25
2018-09-21T00:52:28.751Z,1001.23
2018-09-21T00:53:28.758Z,1001.25
2018-09-21T00:54:28.976Z,1001.23
2018-09-21T00:55:30.528Z,1001.24
2018-09-21T00:56:28.967Z,1001.23
2018-09-21T00:57:28.963Z,1001.19
2018-09-21T00:58:28.777Z,1001.18
2018-09-21T00:59:28.963Z,1001.18
2018-09-21T01:00:28.742Z,1001.17
2018-09-21T01:01:28.793Z,1001.17
2018-09-21T01:02:28.748Z,1001.12
2018-09-21T01:03:28.776Z,1001.08
2018-09-21T01:04:28.966Z,1001.05
2018-09-21T01:05:28.964Z,1001.02
2018-09-21T01:06:28.794Z,1000.99
2018-09-21T01:07:28.796Z,1001.02
2018-09-21T01:08:28.681Z,1001.00
2018-09-21T01:10:28.747Z,1000.93
2018-09-21T01:11:28.739Z,1001.01
2018-09-21T01:12:28.735Z,1000.98
2018-09-21T01:13:28.826Z,1000.99
2018-09-21T01:14:28.734Z,1000.96
2018-09-21T01:15:28.788Z,1000.89
2018-09-21T01:16:28.759Z,1000.91
2018-09-21T01:17:28.758Z,1000.83
2018-09-21T01:18:28.746Z,1000.86
2018-09-21T01:19:28.973Z,1000.81
2018-09-21T01:20:28.722Z,1000.80
2018-09-21T01:21:28.755Z,1000.78
2018-09-21T01:22:28.751Z,1000.80
2018-09-21T01:23:28.989Z,1000.73
2018-09-21T01:24:28.988Z,1000.73
2018-09-21T01:25:28.991Z,1000.72
2018-09-21T01:26:28.768Z,1000.66
2018-09-21T01:27:28.996Z,1000.74
2018-09-21T01:28:28.759Z,1000.73
2018-09-21T01:29:28.814Z,1000.70
2018-09-21T01:30:28.790Z,1000.73
2018-09-21T01:31:28.742Z,1000.68
2018-09-21T01:32:28.798Z,1000.66
2018-09-21T01:33:28.806Z,1000.69
2018-09-21T01:34:28.978Z,1000.69
2018-09-21T01:35:28.746Z,1000.67
2018-09-21T01:36:28.738Z,1000.64
2018-09-21T01:37:28.737Z,1000.64
2018-09-21T01:38:28.743Z,1000.61
2018-09-21T01:39:28.775Z,1000.59
2018-09-21T01:40:28.761Z,1000.56
2018-09-21T01:41:30.539Z,1000.60
2018-09-21T01:42:28.774Z,1000.54
2018-09-21T01:43:28.993Z,1000.50
2018-09-21T01:44:28.731Z,1000.47
2018-09-21T01:45:28.832Z,1000.45
2018-09-21T01:46:28.745Z,1000.48
2018-09-21T01:47:28.828Z,1000.45
2018-09-21T01:48:28.777Z,1000.44
2018-09-21T01:49:29.002Z,1000.44
2018-09-21T01:50:28.787Z,1000.39
2018-09-21T01:51:28.770Z,1000.40
2018-09-21T01:52:28.837Z,1000.37
2018-09-21T01:53:28.760Z,1000.36
2018-09-21T01:54:29.000Z,1000.32
2018-09-21T01:55:28.767Z,1000.36
2018-09-21T01:56:28.260Z,1000.32
2018-09-21T01:57:28.801Z,1000.27
2018-09-21T01:58:28.795Z,1000.28
2018-09-21T01:59:28.811Z,1000.20
2018-09-21T02:00:28.981Z,1000.22
2018-09-21T02:01:28.797Z,1000.18
2018-09-21T02:02:28.783Z,1000.16
2018-09-21T02:03:28.239Z,1000.14
2018-09-21T02:04:28.759Z,1000.14
2018-09-21T02:05:28.826Z,1000.14
2018-09-21T02:06:28.720Z,1000.11
2018-09-21T02:07:28.728Z,1000.03
2018-09-21T02:08:28.768Z,1000.02
2018-09-21T02:09:28.808Z,999.94
2018-09-21T02:10:28.747Z,999.97
2018-09-21T02:11:28.741Z,999.95
2018-09-21T02:12:28.773Z,999.94
2018-09-21T02:13:29.009Z,999.90
2018-09-21T02:14:28.756Z,999.91
2018-09-21T02:15:28.762Z,999.92
2018-09-21T02:16:28.795Z,999.89
2018-09-21T02:17:28.793Z,999.90
2018-09-21T02:18:28.807Z,999.92
2018-09-21T02:19:29.013Z,999.90
2018-09-21T02:20:28.819Z,999.85
2018-09-21T02:21:28.733Z,999.89
2018-09-21T02:22:28.171Z,999.83
2018-09-21T02:23:28.803Z,999.75
2018-09-21T02:24:28.803Z,999.78
2018-09-21T02:25:28.816Z,999.77
2018-09-21T02:26:28.798Z,999.79
2018-09-21T02:27:28.168Z,999.83
2018-09-21T02:28:29.038Z,999.72
2018-09-21T02:29:28.778Z,999.74
2018-09-21T02:30:28.800Z,999.71
2018-09-21T02:31:28.733Z,999.75
2018-09-21T02:32:28.750Z,999.70
2018-09-21T02:33:28.745Z,999.68
2018-09-21T02:34:28.728Z,999.68
2018-09-21T02:35:28.737Z,999.66
2018-09-21T02:36:28.745Z,999.61
2018-09-21T02:37:30.880Z,999.56
2018-09-21T02:38:28.092Z,999.56
2018-09-21T02:39:28.768Z,999.49
2018-09-21T02:40:28.760Z,999.53
2018-09-21T02:41:28.895Z,999.46
2018-09-21T02:42:28.758Z,999.45
2018-09-21T02:43:28.757Z,999.41
2018-09-21T02:44:28.139Z,999.42
2018-09-21T02:45:28.793Z,999.36
2018-09-21T02:46:28.451Z,999.35
2018-09-21T02:47:28.476Z,999.34
2018-09-21T02:48:28.466Z,999.28
2018-09-21T02:49:28.416Z,999.27
2018-09-21T02:50:28.488Z,999.25
2018-09-21T02:51:28.506Z,999.21
2018-09-21T02:52:30.312Z,999.21
2018-09-21T02:53:28.477Z,999.17
2018-09-21T02:54:30.341Z,999.12
2018-09-21T02:55:28.113Z,999.16
2018-09-21T02:56:28.503Z,999.11
2018-09-21T02:57:30.319Z,999.09
2018-09-21T02:58:30.546Z,999.07
2018-09-21T02:59:28.367Z,998.98
2018-09-21T03:00:28.372Z,998.89
2018-09-21T03:01:28.349Z,998.89
2018-09-21T03:02:30.189Z,998.84
2018-09-21T03:03:28.359Z,998.86
2018-09-21T03:04:28.416Z,998.78
2018-09-21T03:05:28.350Z,998.74
2018-09-21T03:06:28.107Z,998.73
2018-09-21T03:07:28.405Z,998.72
2018-09-21T03:08:28.471Z,998.68
2018-09-21T03:09:28.395Z,998.64
2018-09-21T03:10:28.513Z,998.62
2018-09-21T03:11:28.416Z,998.63
2018-09-21T03:12:28.456Z,998.60
2018-09-21T03:13:28.372Z,998.58
2018-09-21T03:14:28.512Z,998.59
2018-09-21T03:15:28.484Z,998.55
2018-09-21T03:16:30.288Z,998.52
2018-09-21T03:17:28.401Z,998.56
2018-09-21T03:18:28.508Z,998.57
2018-09-21T03:19:28.453Z,998.56
2018-09-21T03:20:28.492Z,998.56
2018-09-21T03:21:28.492Z,998.53
2018-09-21T03:22:30.296Z,998.54
2018-09-21T03:23:28.531Z,998.55
2018-09-21T03:24:28.510Z,998.49
2018-09-21T03:25:28.919Z,998.55
2018-09-21T03:26:28.473Z,998.52
2018-09-21T03:27:29.994Z,998.49
2018-09-21T03:28:28.656Z,998.41
2018-09-21T03:29:28.879Z,998.34
2018-09-21T03:30:28.574Z,998.29
2018-09-21T03:31:28.449Z,998.29
2018-09-21T03:32:28.376Z,998.30
2018-09-21T03:33:28.435Z,998.25
2018-09-21T03:34:28.652Z,998.19
2018-09-21T03:35:28.449Z,998.10
2018-09-21T03:36:28.032Z,998.07
2018-09-21T03:37:28.365Z,998.02
2018-09-21T03:38:28.373Z,998.00
2018-09-21T03:39:28.484Z,997.99
2018-09-21T03:40:28.112Z,998.01
2018-09-21T03:41:28.492Z,997.99
2018-09-21T03:42:28.332Z,997.93
2018-09-21T03:43:28.323Z,997.91
2018-09-21T03:44:28.397Z,997.86
2018-09-21T03:45:28.348Z,997.84
2018-09-21T03:46:28.423Z,997.83
2018-09-21T03:47:28.407Z,997.73
2018-09-21T03:48:28.412Z,997.75
2018-09-21T03:49:28.551Z,997.67
2018-09-21T03:50:28.350Z,997.65
2018-09-21T03:51:28.379Z,997.64
2018-09-21T03:52:28.422Z,997.64
2018-09-21T03:53:28.346Z,997.64
2018-09-21T03:54:28.273Z,997.61
2018-09-21T03:55:28.887Z,997.55
2018-09-21T03:56:28.270Z,997.58
2018-09-21T03:57:30.036Z,997.58
2018-09-21T03:58:28.354Z,997.58
2018-09-21T03:59:28.327Z,997.46
2018-09-21T04:00:28.327Z,997.45
2018-09-21T04:01:28.355Z,997.44
2018-09-21T04:02:28.779Z,997.40
2018-09-21T04:03:28.079Z,997.35
2018-09-21T04:04:28.371Z,997.38
2018-09-21T04:05:28.344Z,997.30
2018-09-21T04:06:28.298Z,997.28
2018-09-21T04:07:28.331Z,997.28
2018-09-21T04:08:28.379Z,997.28
2018-09-21T04:09:28.381Z,997.25
2018-09-21T04:10:28.397Z,997.20
2018-09-21T04:11:28.337Z,997.22
2018-09-21T04:12:28.368Z,997.19
2018-09-21T04:13:28.382Z,997.17
2018-09-21T04:14:28.432Z,997.18
2018-09-21T04:15:28.048Z,997.16
2018-09-21T04:16:28.432Z,997.12
2018-09-21T04:17:28.530Z,997.09
2018-09-21T04:18:28.420Z,997.05
2018-09-21T04:19:28.382Z,997.02
2018-09-21T04:20:28.435Z,996.97
2018-09-21T04:21:28.489Z,996.99
2018-09-21T04:22:28.315Z,996.96
2018-09-21T04:23:30.078Z,996.98
2018-09-21T04:24:28.276Z,996.92
2018-09-21T04:25:30.532Z,996.87
2018-09-21T04:26:28.282Z,996.96
2018-09-21T04:27:28.362Z,996.96
2018-09-21T04:28:28.337Z,996.96
2018-09-21T04:29:28.423Z,996.99
2018-09-21T04:30:28.322Z,997.01
2018-09-21T04:31:28.305Z,996.98
2018-09-21T04:32:28.538Z,996.98
2018-09-21T04:33:28.638Z,996.99
2018-09-21T04:34:28.641Z,996.96
2018-09-21T04:35:28.794Z,996.94
2018-09-21T04:36:28.622Z,996.93
2018-09-21T04:37:28.904Z,996.90
2018-09-21T04:38:28.530Z,996.94
2018-09-21T04:39:28.557Z,996.93
2018-09-21T04:40:28.966Z,996.90
2018-09-21T04:41:28.853Z,996.83
2018-09-21T04:42:28.883Z,996.79
2018-09-21T04:43:28.923Z,996.83
2018-09-21T04:44:28.442Z,996.78
2018-09-21T04:45:28.584Z,996.73
2018-09-21T04:46:28.140Z,996.81
2018-09-21T04:47:28.843Z,996.77
2018-09-21T04:48:28.315Z,996.71
2018-09-21T04:49:28.283Z,996.61
2018-09-21T04:50:28.363Z,996.62
2018-09-21T04:51:28.567Z,996.64
2018-09-21T04:52:28.353Z,996.61
2018-09-21T04:53:28.336Z,996.58
2018-09-21T04:54:28.344Z,996.63
2018-09-21T04:55:28.283Z,996.66
2018-09-21T04:56:28.649Z,996.59
2018-09-21T04:57:28.556Z,996.68
2018-09-21T04:58:28.535Z,996.65
2018-09-21T04:59:28.372Z,996.63
2018-09-21T05:00:28.328Z,996.57
2018-09-21T05:01:28.088Z,996.63
2018-09-21T05:02:28.357Z,996.54
2018-09-21T05:03:28.295Z,996.52
2018-09-21T05:04:28.327Z,996.58
2018-09-21T05:05:28.558Z,996.51
2018-09-21T05:06:28.405Z,996.55
2018-09-21T05:07:28.594Z,996.51
2018-09-21T05:08:28.334Z,996.46
2018-09-21T05:09:32.462Z,996.50
2018-09-21T05:10:28.464Z,996.46
2018-09-21T05:11:30.093Z,996.50
2018-09-21T05:12:28.596Z,996.46
2018-09-21T05:13:28.391Z,996.53
2018-09-21T05:14:28.318Z,996.49
2018-09-21T05:15:28.276Z,996.48
2018-09-21T05:16:28.626Z,996.48
2018-09-21T05:17:28.556Z,996.47
2018-09-21T05:18:28.397Z,996.43
2018-09-21T05:19:28.889Z,996.47
2018-09-21T05:20:28.182Z,996.38
2018-09-21T05:21:28.468Z,996.39
2018-09-21T05:22:29.103Z,996.39
2018-09-21T05:23:28.915Z,996.35
2018-09-21T05:24:28.394Z,996.28
2018-09-21T05:25:28.423Z,996.36
2018-09-21T05:26:28.614Z,996.35
2018-09-21T05:27:29.029Z,996.32
2018-09-21T05:28:28.900Z,996.33
2018-09-21T05:29:30.159Z,996.42
2018-09-21T05:30:28.569Z,996.36
2018-09-21T05:31:28.086Z,996.35
2018-09-21T05:32:28.962Z,996.29
2018-09-21T05:33:28.563Z,996.24
2018-09-21T05:34:28.517Z,996.29
2018-09-21T05:35:28.358Z,996.21
2018-09-21T05:36:29.100Z,996.32
2018-09-21T05:37:29.017Z,996.34
2018-09-21T05:38:28.426Z,996.34
2018-09-21T05:39:28.491Z,996.38
2018-09-21T05:40:28.944Z,996.38
2018-09-21T05:41:27.994Z,996.36
2018-09-21T05:42:28.583Z,996.35
2018-09-21T05:43:28.605Z,996.31
2018-09-21T05:44:28.399Z,996.30
2018-09-21T05:45:28.379Z,996.27
2018-09-21T05:46:28.398Z,996.31
2018-09-21T05:47:28.609Z,996.33
2018-09-21T05:48:28.394Z,996.32
2018-09-21T05:49:28.392Z,996.26
2018-09-21T05:50:28.589Z,996.20
2018-09-21T05:51:30.572Z,996.21
2018-09-21T05:52:28.369Z,996.14
2018-09-21T05:53:28.083Z,996.14
2018-09-21T05:54:28.690Z,996.18
2018-09-21T05:55:28.427Z,996.07
2018-09-21T05:56:28.663Z,996.15
2018-09-21T05:57:28.413Z,996.07
2018-09-21T05:58:28.936Z,996.20
2018-09-21T05:59:28.376Z,996.08
2018-09-21T06:00:28.188Z,996.17
2018-09-21T06:01:28.421Z,996.14
2018-09-21T06:02:28.373Z,996.10
2018-09-21T06:03:28.435Z,996.22
2018-09-21T06:04:28.561Z,996.14
2018-09-21T06:05:28.136Z,996.10
2018-09-21T06:06:28.361Z,996.10
2018-09-21T06:07:28.335Z,996.17
2018-09-21T06:08:28.592Z,996.13
2018-09-21T06:09:28.363Z,996.07
2018-09-21T06:10:28.390Z,996.12
2018-09-21T06:11:28.955Z,996.02
2018-09-21T06:12:28.939Z,996.02
2018-09-21T06:13:28.374Z,996.14
2018-09-21T06:14:29.074Z,996.05
2018-09-21T06:15:28.369Z,995.95
2018-09-21T06:16:28.366Z,995.87
2018-09-21T06:17:28.569Z,995.89
2018-09-21T06:18:28.415Z,996.05
2018-09-21T06:19:28.690Z,995.99
2018-09-21T06:20:28.083Z,996.01
2018-09-21T06:21:28.383Z,996.01
2018-09-21T06:22:28.362Z,995.97
2018-09-21T06:23:28.625Z,996.12
2018-09-21T06:24:28.381Z,996.08
2018-09-21T06:25:28.354Z,996.12
2018-09-21T06:26:28.620Z,996.11
2018-09-21T06:27:28.604Z,996.07
2018-09-21T06:28:28.457Z,996.10
2018-09-21T06:29:28.418Z,996.02
2018-09-21T06:30:28.388Z,996.00
2018-09-21T06:31:30.398Z,995.97
2018-09-21T06:32:28.147Z,995.99
2018-09-21T06:33:34.405Z,996.11
2018-09-21T06:34:26.981Z,995.99
2018-09-21T06:36:22.660Z,996.05
2018-09-21T06:37:21.633Z,996.02
2018-09-21T06:39:15.829Z,995.93
2018-09-21T06:40:15.810Z,995.89
2018-09-21T06:42:43.329Z,995.94
2018-09-21T06:43:44.777Z,995.89
2018-09-21T06:44:42.436Z,995.98
2018-09-21T06:45:43.085Z,995.86
2018-09-21T06:46:43.148Z,995.89
2018-09-21T06:47:42.411Z,995.92
2018-09-21T06:48:42.437Z,996.07
2018-09-21T06:49:43.576Z,996.03
2018-09-21T06:50:42.455Z,996.05
2018-09-21T06:51:43.153Z,996.14
2018-09-21T06:52:43.172Z,996.10
2018-09-21T06:53:42.429Z,996.15
2018-09-21T06:54:43.465Z,996.22
2018-09-21T06:55:43.542Z,996.30
2018-09-21T06:56:43.984Z,996.21
2018-09-21T06:57:43.561Z,996.12
2018-09-21T06:58:44.004Z,996.16
2018-09-21T06:59:43.482Z,996.25
2018-09-21T07:00:42.422Z,996.22
2018-09-21T07:01:42.449Z,996.22
2018-09-21T07:02:44.025Z,996.24
2018-09-21T07:03:43.546Z,996.20
2018-09-21T07:04:44.042Z,996.26
2018-09-21T07:05:47.328Z,996.38
2018-09-21T07:06:44.014Z,996.38
2018-09-21T07:07:43.992Z,996.35
2018-09-21T07:08:46.051Z,996.36
2018-09-21T07:09:46.209Z,996.52
2018-09-21T07:10:45.006Z,996.30
2018-09-21T07:11:44.047Z,996.38
2018-09-21T07:12:44.299Z,996.34
2018-09-21T07:13:46.072Z,996.29
2018-09-21T07:14:44.048Z,996.15
2018-09-21T07:15:45.906Z,996.19
2018-09-21T07:16:46.034Z,996.12
2018-09-21T07:17:44.015Z,996.12
2018-09-21T07:18:44.561Z,996.24
2018-09-21T07:19:46.006Z,996.23
2018-09-21T07:20:44.984Z,996.25
2018-09-21T07:21:43.993Z,996.24
2018-09-21T07:22:44.005Z,996.33
2018-09-21T07:23:43.997Z,996.30
2018-09-21T07:24:43.927Z,996.36
2018-09-21T07:25:43.982Z,996.38
2018-09-21T07:26:44.027Z,996.49
2018-09-21T07:27:46.262Z,996.43
2018-09-21T07:28:44.021Z,996.48
2018-09-21T07:29:43.536Z,996.43
2018-09-21T07:30:44.584Z,996.46
2018-09-21T07:31:44.269Z,996.48
2018-09-21T07:32:44.097Z,996.49
2018-09-21T07:33:45.573Z,996.45
2018-09-21T07:34:43.860Z,996.47
2018-09-21T07:35:44.598Z,996.47
2018-09-21T07:36:44.608Z,996.21
2018-09-21T07:37:44.309Z,996.34
2018-09-21T07:38:43.766Z,996.31
2018-09-21T07:39:45.568Z,996.24
2018-09-21T07:40:46.582Z,996.24
2018-09-21T07:41:44.284Z,996.19
2018-09-21T07:42:44.704Z,996.23
2018-09-21T07:45:47.147Z,996.36
2018-09-21T07:46:47.825Z,996.43
2018-09-21T07:47:46.096Z,996.43
2018-09-21T07:50:18.645Z,996.37
2018-09-21T07:51:18.665Z,996.45
2018-09-21T07:53:13.712Z,996.39
2018-09-21T07:54:13.909Z,996.55
2018-09-21T07:56:08.511Z,996.51
2018-09-21T07:57:08.332Z,996.46
2018-09-21T07:58:08.629Z,996.48
2018-09-21T07:59:09.207Z,996.42
2018-09-21T08:00:08.963Z,996.42
2018-09-21T08:01:08.475Z,996.28
2018-09-21T08:02:08.347Z,996.35
2018-09-21T08:03:11.103Z,996.35
2018-09-21T08:04:09.659Z,996.31
2018-09-21T08:05:10.695Z,996.40
2018-09-21T08:06:12.140Z,996.31
2018-09-21T08:07:08.284Z,996.40
2018-09-21T08:08:10.604Z,996.49
2018-09-21T08:09:09.598Z,996.58
2018-09-21T08:10:13.170Z,996.53
2018-09-21T08:11:08.180Z,996.43
2018-09-21T08:12:08.325Z,996.38
2018-09-21T08:13:09.901Z,996.38
2018-09-21T08:14:09.205Z,996.42
2018-09-21T08:15:10.591Z,996.51
2018-09-21T08:16:12.144Z,996.45
2018-09-21T08:17:09.100Z,996.41
2018-09-21T08:18:10.475Z,996.38
2018-09-21T08:19:08.958Z,996.40
2018-09-21T08:20:08.750Z,996.33
2018-09-21T08:21:07.919Z,996.44
2018-09-21T08:22:08.235Z,996.44
2018-09-21T08:23:08.220Z,996.29
2018-09-21T08:24:08.237Z,996.38
2018-09-21T08:25:08.689Z,996.31
2018-09-21T08:26:07.915Z,996.37
2018-09-21T08:27:08.650Z,996.38
2018-09-21T08:28:08.653Z,996.30
2018-09-21T08:29:08.652Z,996.35
2018-09-21T08:30:10.654Z,996.26
2018-09-21T08:31:10.152Z,996.25
2018-09-21T08:32:08.691Z,996.26
2018-09-21T08:33:09.962Z,996.18
2018-09-21T08:34:10.292Z,996.19
2018-09-21T08:35:08.653Z,996.25
2018-09-21T08:36:10.141Z,996.21
2018-09-21T08:37:08.302Z,996.24
2018-09-21T08:39:56.314Z,996.09
2018-09-21T08:40:55.081Z,996.10
2018-09-21T08:42:49.360Z,996.10
2018-09-21T08:43:49.504Z,996.06
2018-09-21T08:45:44.266Z,996.01
2018-09-21T08:46:45.282Z,996.06
2018-09-21T08:48:38.356Z,996.12
2018-09-21T08:49:40.371Z,996.03
2018-09-21T08:52:02.550Z,996.25
2018-09-21T08:53:03.074Z,996.27
2018-09-21T08:54:57.467Z,996.31
2018-09-21T08:55:57.588Z,996.26
2018-09-21T08:57:50.984Z,996.27
2018-09-21T08:58:51.097Z,996.24
2018-09-21T09:00:45.867Z,996.29
2018-09-21T09:01:46.165Z,996.43
2018-09-21T09:03:41.078Z,996.59
2018-09-21T09:04:41.116Z,996.69
2018-09-21T09:05:40.871Z,996.66
2018-09-21T09:06:41.371Z,996.85
2018-09-21T09:07:40.987Z,996.82
2018-09-21T09:08:40.882Z,996.92
2018-09-21T09:09:40.869Z,996.93
2018-09-21T09:10:41.118Z,997.15
2018-09-21T09:11:40.880Z,997.30
2018-09-21T09:12:40.848Z,997.53
2018-09-21T09:13:40.847Z,997.51
2018-09-21T09:14:41.079Z,997.51
2018-09-21T09:15:40.838Z,997.64
2018-09-21T09:16:40.369Z,997.99
2018-09-21T09:17:41.063Z,998.06
2018-09-21T09:18:40.366Z,998.20
2018-09-21T09:19:40.459Z,998.25
2018-09-21T09:20:40.795Z,998.22
2018-09-21T09:21:42.575Z,998.11
2018-09-21T09:22:41.081Z,998.17
2018-09-21T09:23:40.566Z,998.26
2018-09-21T09:25:41.537Z,998.40
2018-09-21T09:26:41.082Z,998.41
2018-09-21T09:27:42.698Z,998.43
2018-09-21T09:28:40.820Z,998.33
2018-09-21T09:29:41.128Z,998.41
2018-09-21T09:30:41.388Z,998.44
2018-09-21T09:31:40.310Z,998.51
2018-09-21T09:32:41.084Z,998.51
2018-09-21T09:33:40.821Z,998.56
2018-09-21T09:34:41.377Z,998.63
2018-09-21T09:35:40.864Z,998.62
2018-09-21T09:36:41.899Z,998.64
2018-09-21T09:37:41.092Z,998.68
2018-09-21T09:38:40.440Z,998.73
2018-09-21T09:39:40.885Z,998.71
2018-09-21T09:40:41.087Z,998.65
2018-09-21T09:41:41.090Z,998.61
2018-09-21T09:42:40.936Z,998.55
2018-09-21T09:43:40.856Z,998.55
2018-09-21T09:44:40.874Z,998.52
2018-09-21T09:45:40.811Z,998.52
2018-09-21T09:46:41.088Z,998.53
2018-09-21T09:47:41.048Z,998.63
2018-09-21T09:50:15.615Z,998.70
2018-09-21T09:51:15.947Z,998.71
2018-09-21T09:53:53.407Z,998.76
2018-09-21T09:54:23.766Z,998.72
2018-09-21T09:57:01.151Z,998.80
2018-09-21T09:58:00.154Z,998.88
2018-09-21T09:59:22.424Z,998.81
2018-09-21T10:00:00.666Z,998.87
2018-09-21T10:01:00.817Z,998.85
2018-09-21T10:02:00.977Z,998.87
2018-09-21T10:02:59.822Z,998.85
2018-09-21T10:05:37.364Z,998.85
2018-09-21T10:06:36.341Z,998.90
2018-09-21T10:07:38.825Z,998.92
2018-09-21T10:10:11.590Z,998.82
2018-09-21T10:11:32.371Z,998.98
2018-09-21T10:12:11.594Z,999.08
2018-09-21T10:14:43.266Z,999.14
2018-09-21T10:15:12.195Z,999.09
2018-09-21T10:16:11.507Z,999.02
2018-09-21T10:17:12.126Z,998.87
2018-09-21T10:21:51.179Z,999.12
2018-09-21T10:23:31.307Z,999.01
2018-09-21T10:24:23.534Z,999.01
2018-09-21T10:25:44.679Z,999.00
2018-09-21T10:27:44.676Z,999.07
2018-09-21T10:30:29.603Z,999.18
2018-09-21T10:30:57.078Z,999.25
2018-09-21T10:32:51.865Z,999.22
2018-09-21T10:33:52.255Z,999.26
2018-09-21T10:35:59.951Z,999.33
2018-09-21T10:36:47.540Z,999.33
2018-09-21T10:37:47.418Z,999.40
2018-09-21T10:38:48.112Z,999.35
2018-09-21T10:39:48.462Z,999.36
2018-09-21T10:40:47.947Z,999.35
2018-09-21T10:41:46.828Z,999.40
2018-09-21T10:42:49.809Z,999.44
2018-09-21T10:43:55.764Z,999.40
2018-09-21T10:45:41.814Z,999.45
2018-09-21T10:48:29.348Z,999.43
2018-09-21T10:50:47.470Z,999.37
2018-09-21T10:52:07.201Z,999.36
2018-09-21T10:52:53.335Z,999.32
2018-09-21T10:55:34.835Z,999.48
2018-09-21T10:56:31.301Z,999.40
2018-09-21T10:57:38.165Z,999.36
2018-09-21T10:58:32.419Z,999.36
2018-09-21T10:59:31.336Z,999.54
2018-09-21T11:00:30.853Z,999.60
2018-09-21T11:01:30.981Z,999.48
2018-09-21T11:02:31.828Z,999.49
2018-09-21T11:05:29.958Z,999.49
2018-09-21T11:06:30.419Z,999.48
2018-09-21T11:08:39.930Z,999.53
2018-09-21T11:10:45.942Z,999.73
2018-09-21T11:13:01.196Z,999.73
2018-09-21T11:14:01.640Z,999.71
2018-09-21T11:15:02.198Z,999.74
2018-09-21T11:16:02.652Z,999.78
2018-09-21T11:17:01.637Z,999.83
2018-09-21T11:18:01.105Z,999.71
2018-09-21T11:19:58.580Z,999.65
2018-09-21T11:20:56.380Z,999.73
2018-09-21T11:22:50.843Z,999.72
2018-09-21T11:23:51.120Z,999.75
2018-09-21T11:24:53.413Z,999.84
2018-09-21T11:25:54.850Z,999.82
2018-09-21T11:27:13.267Z,999.73
2018-09-21T11:28:05.935Z,999.75
2018-09-21T11:28:51.165Z,999.77
2018-09-21T11:29:51.389Z,999.70
2018-09-21T11:30:53.427Z,999.61
2018-09-21T11:31:51.348Z,999.64
2018-09-21T11:32:57.407Z,999.64
2018-09-21T11:33:51.417Z,999.71
2018-09-21T11:34:51.262Z,999.73
2018-09-21T11:35:53.130Z,999.77
2018-09-21T11:36:51.312Z,999.78
2018-09-21T11:37:55.340Z,999.94
2018-09-21T11:38:51.425Z,999.84
2018-09-21T11:39:51.097Z,999.81
2018-09-21T11:40:51.173Z,999.83
2018-09-21T11:41:50.651Z,999.91
2018-09-21T11:42:50.676Z,999.83
2018-09-21T11:43:53.393Z,999.74
2018-09-21T11:44:51.672Z,999.87
2018-09-21T11:45:51.369Z,999.81
2018-09-21T11:47:11.705Z,999.85
2018-09-21T11:47:51.216Z,999.86
2018-09-21T11:48:50.873Z,999.81
2018-09-21T11:49:52.108Z,999.81
2018-09-21T11:50:51.004Z,999.83
2018-09-21T11:51:50.727Z,999.86
2018-09-21T11:52:53.512Z,999.83
2018-09-21T11:53:53.391Z,999.95
2018-09-21T11:54:52.549Z,999.95
2018-09-21T11:56:12.912Z,999.96
2018-09-21T11:57:13.321Z,1000.07
2018-09-21T11:57:51.162Z,1000.07
2018-09-21T11:59:18.180Z,1000.02
2018-09-21T12:00:11.640Z,999.99
2018-09-21T12:00:50.693Z,1000.17
2018-09-21T12:01:51.696Z,1000.05
2018-09-21T12:02:50.582Z,1000.08
2018-09-21T12:03:50.670Z,1000.05
2018-09-21T12:05:27.304Z,1000.10
2018-09-21T12:05:57.681Z,1000.13
2018-09-21T12:06:51.825Z,1000.15
2018-09-21T12:07:53.395Z,1000.20
2018-09-21T12:09:18.120Z,1000.24
2018-09-21T12:10:01.385Z,1000.22
2018-09-21T12:10:57.439Z,1000.29
2018-09-21T12:12:14.192Z,1000.36
2018-09-21T12:12:51.180Z,1000.31
2018-09-21T12:13:50.575Z,1000.40
2018-09-21T12:15:11.853Z,1000.19
2018-09-21T12:15:50.591Z,1000.34
2018-09-21T12:17:05.595Z,1000.33
2018-09-21T12:17:53.279Z,1000.37
2018-09-21T12:19:14.903Z,1000.30
2018-09-21T12:19:51.433Z,1000.32
2018-09-21T12:21:19.180Z,1000.38
2018-09-21T12:22:11.754Z,1000.33
2018-09-21T12:22:51.293Z,1000.39
2018-09-21T12:24:12.145Z,1000.35
2018-09-21T12:24:51.097Z,1000.39
2018-09-21T12:26:18.118Z,1000.33
2018-09-21T12:26:51.808Z,1000.41
2018-09-21T12:28:11.185Z,1000.42
2018-09-21T12:28:53.361Z,1000.39
2018-09-21T12:31:24.123Z,1000.40
2018-09-21T12:32:24.236Z,1000.42
2018-09-21T12:33:23.861Z,1000.49
2018-09-21T12:34:24.337Z,1000.45
2018-09-21T12:35:24.626Z,1000.59
2018-09-21T12:36:28.109Z,1000.69
2018-09-21T12:37:24.610Z,1000.71
2018-09-21T12:38:25.623Z,1000.66
2018-09-21T12:39:24.615Z,1000.73
2018-09-21T12:41:21.065Z,1000.71
2018-09-21T12:42:20.824Z,1000.90
2018-09-21T12:43:23.618Z,1000.74
2018-09-21T12:44:20.527Z,1000.72
2018-09-21T12:45:21.575Z,1000.69
2018-09-21T12:46:21.443Z,1000.72
2018-09-21T12:47:20.984Z,1000.72
2018-09-21T12:50:13.042Z,1000.91
2018-09-21T12:51:33.418Z,1000.88
2018-09-21T12:52:12.508Z,1000.97
2018-09-21T12:53:12.967Z,1000.87
2018-09-21T12:54:14.918Z,1001.01
2018-09-21T12:55:12.677Z,1001.09
2018-09-21T12:57:13.709Z,1001.10
2018-09-21T12:58:18.763Z,1001.01
2018-09-21T12:59:12.921Z,1001.00
2018-09-21T13:01:12.889Z,1001.02
2018-09-21T13:02:17.973Z,1001.08
2018-09-21T13:03:13.422Z,1001.04
2018-09-21T13:04:12.933Z,1001.02
2018-09-21T13:05:12.841Z,1001.07
2018-09-21T13:06:16.006Z,1001.11
2018-09-21T13:07:12.689Z,1001.08
2018-09-21T13:08:14.687Z,1001.11
2018-09-21T13:09:33.424Z,1001.24
2018-09-21T13:10:12.732Z,1001.21
2018-09-21T13:11:13.409Z,1001.22
2018-09-21T13:12:12.485Z,1001.16
2018-09-21T13:13:12.330Z,1001.17
2018-09-21T13:14:12.727Z,1001.27
2018-09-21T13:15:12.736Z,1001.18
2018-09-21T13:16:13.425Z,1001.32
2018-09-21T13:17:12.663Z,1001.28
2018-09-21T13:18:14.407Z,1001.38
2018-09-21T13:19:12.687Z,1001.61